createdAt,value
2018-08-28T00:02:12.027Z,61.30
2018-08-28T00:04:39.523Z,61.50
2018-08-28T00:07:06.827Z,61.60
2018-08-28T00:09:34.139Z,61.70
2018-08-28T00:12:01.575Z,61.80
2018-08-28T00:17:03.249Z,62.70
2018-08-28T00:19:30.570Z,62.00
2018-08-28T00:21:57.952Z,62.10
2018-08-28T00:24:25.275Z,62.20
2018-08-28T00:26:52.670Z,62.20
2018-08-28T00:29:20.012Z,62.40
2018-08-28T00:31:47.347Z,62.40
2018-08-28T00:34:14.652Z,62.40
2018-08-28T00:36:41.939Z,62.50
2018-08-28T00:39:09.252Z,62.60
2018-08-28T00:41:36.567Z,62.60
2018-08-28T00:44:03.924Z,62.70
2018-08-28T00:46:31.253Z,62.90
2018-08-28T00:48:58.534Z,62.80
2018-08-28T00:51:25.856Z,62.90
2018-08-28T00:53:53.142Z,63.00
2018-08-28T00:56:20.505Z,63.30
2018-08-28T00:58:47.894Z,63.20
2018-08-28T01:01:15.209Z,63.20
2018-08-28T01:03:42.532Z,63.20
2018-08-28T01:06:09.851Z,63.30
2018-08-28T01:08:37.135Z,63.40
2018-08-28T01:11:04.954Z,63.40
2018-08-28T01:13:32.260Z,63.50
2018-08-28T01:15:59.587Z,63.40
2018-08-28T01:18:26.884Z,63.60
2018-08-28T01:20:54.177Z,63.70
2018-08-28T01:23:21.719Z,63.70
2018-08-28T01:25:49.007Z,63.80
2018-08-28T01:28:16.355Z,63.90
2018-08-28T01:30:43.671Z,64.00
2018-08-28T01:33:10.988Z,64.10
2018-08-28T01:35:38.284Z,64.10
2018-08-28T01:38:05.599Z,64.20
2018-08-28T01:40:32.910Z,64.30
2018-08-28T01:43:00.545Z,64.40
2018-08-28T01:45:27.843Z,64.50
2018-08-28T01:47:55.210Z,64.50
2018-08-28T01:50:22.655Z,64.50
2018-08-28T01:52:49.964Z,64.70
2018-08-28T01:55:17.491Z,64.70
2018-08-28T01:57:44.877Z,64.70
2018-08-28T02:00:12.175Z,65.00
2018-08-28T02:02:39.505Z,64.90
2018-08-28T02:05:07.261Z,65.00
2018-08-28T02:07:34.726Z,65.10
2018-08-28T02:10:02.042Z,65.20
2018-08-28T02:12:29.323Z,65.20
2018-08-28T02:14:56.649Z,65.30
2018-08-28T02:17:23.953Z,65.40
2018-08-28T02:19:51.266Z,65.50
2018-08-28T02:22:18.564Z,65.50
2018-08-28T02:24:45.883Z,65.60
2018-08-28T02:27:13.170Z,65.70
2018-08-28T02:29:40.463Z,65.70
2018-08-28T02:32:07.768Z,65.70
2018-08-28T02:34:35.039Z,65.70
2018-08-28T02:37:02.370Z,65.80
2018-08-28T02:39:29.660Z,65.80
2018-08-28T02:41:56.980Z,65.80
2018-08-28T02:44:24.296Z,66.00
2018-08-28T02:46:51.612Z,66.00
2018-08-28T02:49:18.906Z,66.00
2018-08-28T02:51:46.202Z,66.20
2018-08-28T02:54:13.728Z,66.20
2018-08-28T02:56:41.021Z,66.20
2018-08-28T02:59:08.298Z,66.20
2018-08-28T03:01:35.591Z,66.40
2018-08-28T03:04:02.907Z,66.40
2018-08-28T03:06:30.408Z,66.50
2018-08-28T03:09:05.027Z,66.50
2018-08-28T03:11:32.355Z,66.50
2018-08-28T03:13:59.671Z,66.50
2018-08-28T03:16:26.983Z,66.70
2018-08-28T03:18:54.355Z,66.70
2018-08-28T03:21:21.656Z,66.70
2018-08-28T03:23:48.995Z,66.80
2018-08-28T03:26:16.298Z,66.80
2018-08-28T03:28:43.594Z,66.90
2018-08-28T03:31:10.898Z,66.90
2018-08-28T03:33:38.209Z,67.00
2018-08-28T03:36:05.511Z,67.00
2018-08-28T03:38:32.976Z,67.20
2018-08-28T03:41:00.345Z,67.00
2018-08-28T03:46:01.695Z,67.30
2018-08-28T03:48:28.980Z,67.30
2018-08-28T03:50:56.275Z,67.30
2018-08-28T03:53:23.608Z,67.40
2018-08-28T03:55:50.909Z,67.50
2018-08-28T03:58:18.227Z,67.60
2018-08-28T04:00:45.527Z,67.60
2018-08-28T04:03:12.835Z,67.60
2018-08-28T04:05:40.328Z,67.50
2018-08-28T04:08:07.633Z,67.60
2018-08-28T04:10:34.915Z,67.70
2018-08-28T04:13:02.241Z,67.80
2018-08-28T04:15:29.565Z,67.80
2018-08-28T04:17:57.094Z,67.80
2018-08-28T04:20:24.391Z,67.80
2018-08-28T04:22:51.733Z,67.90
2018-08-28T04:25:19.034Z,68.10
2018-08-28T04:27:47.147Z,68.00
2018-08-28T04:30:14.538Z,68.10
2018-08-28T04:32:42.039Z,68.10
2018-08-28T04:35:16.288Z,68.20
2018-08-28T04:37:43.579Z,68.20
2018-08-28T04:40:10.882Z,68.10
2018-08-28T04:42:38.555Z,68.20
2018-08-28T04:45:06.373Z,68.30
2018-08-28T04:47:33.735Z,68.30
2018-08-28T04:50:01.097Z,68.40
2018-08-28T04:52:28.646Z,68.40
2018-08-28T04:54:56.167Z,68.50
2018-08-28T04:57:23.600Z,68.40
2018-08-28T04:59:50.975Z,68.60
2018-08-28T05:02:18.377Z,68.50
2018-08-28T05:04:46.442Z,68.50
2018-08-28T05:07:13.910Z,68.50
2018-08-28T05:09:41.243Z,68.70
2018-08-28T05:12:08.556Z,68.80
2018-08-28T05:14:35.859Z,68.80
2018-08-28T05:17:03.197Z,68.80
2018-08-28T05:19:30.523Z,68.90
2018-08-28T05:21:57.888Z,69.10
2018-08-28T05:24:25.195Z,69.10
2018-08-28T05:26:52.510Z,69.10
2018-08-28T05:29:19.872Z,69.10
2018-08-28T05:31:47.119Z,69.10
2018-08-28T05:34:14.407Z,68.70
2018-08-28T05:36:41.712Z,69.10
2018-08-28T05:39:09.733Z,69.20
2018-08-28T05:41:37.379Z,69.20
2018-08-28T05:44:04.829Z,69.30
2018-08-28T05:46:32.150Z,69.30
2018-08-28T05:48:59.529Z,69.40
2018-08-28T05:51:26.890Z,69.30
2018-08-28T05:53:55.127Z,69.30
2018-08-28T05:56:22.415Z,69.40
2018-08-28T05:58:50.180Z,69.30
2018-08-28T06:01:17.496Z,69.20
2018-08-28T06:03:44.866Z,69.30
2018-08-28T06:06:13.186Z,69.40
2018-08-28T06:08:40.537Z,69.30
2018-08-28T06:11:09.508Z,69.20
2018-08-28T06:13:36.861Z,69.40
2018-08-28T06:16:04.247Z,69.30
2018-08-28T06:18:31.588Z,69.40
2018-08-28T06:20:59.071Z,69.50
2018-08-28T06:23:26.615Z,69.70
2018-08-28T06:25:53.924Z,69.40
2018-08-28T06:28:21.216Z,69.50
2018-08-28T06:30:48.532Z,69.70
2018-08-28T06:33:15.916Z,69.60
2018-08-28T06:35:43.188Z,69.40
2018-08-28T06:38:10.475Z,69.40
2018-08-28T06:40:37.977Z,69.10
2018-08-28T06:43:05.417Z,69.10
2018-08-28T06:45:32.763Z,69.90
2018-08-28T06:48:00.121Z,68.90
2018-08-28T06:50:27.455Z,69.00
2018-08-28T06:52:54.779Z,68.90
2018-08-28T06:55:22.129Z,68.60
2018-08-28T06:57:49.446Z,68.00
2018-08-28T07:00:16.791Z,67.70
2018-08-28T07:02:44.156Z,67.50
2018-08-28T07:05:11.525Z,67.20
2018-08-28T07:07:39.391Z,67.40
2018-08-28T07:10:07.011Z,67.70
2018-08-28T07:12:34.271Z,67.60
2018-08-28T07:15:01.576Z,67.70
2018-08-28T07:17:28.893Z,67.80
2018-08-28T07:19:56.196Z,67.70
2018-08-28T07:22:24.027Z,67.50
2018-08-28T07:24:51.352Z,67.40
2018-08-28T07:27:18.661Z,67.60
2018-08-28T07:29:46.016Z,67.70
2018-08-28T07:32:13.328Z,67.10
2018-08-28T07:34:40.616Z,67.00
2018-08-28T07:37:07.937Z,66.60
2018-08-28T07:39:35.237Z,66.30
2018-08-28T07:42:02.547Z,65.60
2018-08-28T07:44:30.001Z,65.40
2018-08-28T07:46:57.333Z,65.20
2018-08-28T07:49:24.640Z,65.00
2018-08-28T07:51:51.939Z,65.20
2018-08-28T07:54:19.265Z,64.80
2018-08-28T07:56:46.583Z,65.20
2018-08-28T07:59:13.921Z,64.90
2018-08-28T08:01:41.265Z,65.00
2018-08-28T08:04:08.588Z,64.90
2018-08-28T08:06:35.928Z,65.40
2018-08-28T08:09:04.291Z,65.30
2018-08-28T08:11:31.596Z,65.30
2018-08-28T08:13:58.959Z,65.00
2018-08-28T08:16:26.264Z,64.90
2018-08-28T08:18:53.660Z,64.50
2018-08-28T08:21:20.976Z,64.50
2018-08-28T08:23:48.611Z,63.80
2018-08-28T08:26:15.883Z,64.30
2018-08-28T08:28:43.241Z,63.20
2018-08-28T08:31:10.648Z,63.10
2018-08-28T08:33:38.033Z,62.60
2018-08-28T08:36:05.462Z,62.00
2018-08-28T08:38:32.779Z,62.00
2018-08-28T08:41:00.099Z,61.40
2018-08-28T08:43:27.415Z,61.40
2018-08-28T08:45:54.779Z,60.90
2018-08-28T08:48:22.076Z,61.20
2018-08-28T08:50:49.608Z,61.00
2018-08-28T08:53:16.958Z,60.40
2018-08-28T08:55:44.323Z,60.40
2018-08-28T08:58:11.676Z,60.50
2018-08-28T09:00:39.035Z,60.50
2018-08-28T09:03:06.368Z,61.00
2018-08-28T09:05:33.695Z,59.90
2018-08-28T09:08:01.195Z,59.70
2018-08-28T09:10:28.476Z,59.80
2018-08-28T09:12:55.795Z,59.40
2018-08-28T09:17:50.424Z,57.20
2018-08-28T09:20:17.741Z,58.50
2018-08-28T09:22:45.087Z,56.90
2018-08-28T09:25:12.399Z,55.40
2018-08-28T09:27:39.706Z,55.10
2018-08-28T09:30:07.549Z,54.80
2018-08-28T09:32:34.845Z,55.60
2018-08-28T09:35:02.239Z,55.80
2018-08-28T09:37:29.542Z,56.20
2018-08-28T09:39:56.863Z,54.90
2018-08-28T09:42:24.162Z,54.60
2018-08-28T09:44:51.717Z,53.90
2018-08-28T09:47:19.003Z,52.70
2018-08-28T09:49:46.362Z,52.20
2018-08-28T09:52:13.661Z,52.00
2018-08-28T09:54:40.987Z,52.30
2018-08-28T09:57:08.308Z,51.60
2018-08-28T09:59:35.843Z,51.30
2018-08-28T10:02:03.133Z,49.90
2018-08-28T10:04:30.452Z,48.50
2018-08-28T10:06:57.760Z,48.60
2018-08-28T10:09:25.103Z,48.80
2018-08-28T10:11:52.452Z,47.60
2018-08-28T10:14:19.753Z,47.90
2018-08-28T10:16:47.061Z,48.80
2018-08-28T10:19:14.375Z,48.60
2018-08-28T10:21:41.699Z,48.20
2018-08-28T10:24:09.013Z,48.10
2018-08-28T10:26:36.340Z,48.40
2018-08-28T10:29:03.684Z,48.90
2018-08-28T10:31:31.000Z,48.80
2018-08-28T10:33:58.489Z,48.00
2018-08-28T10:36:25.965Z,47.20
2018-08-28T10:38:53.259Z,47.30
2018-08-28T10:41:20.754Z,48.10
2018-08-28T10:43:48.079Z,47.40
2018-08-28T10:46:15.436Z,48.00
2018-08-28T10:48:42.750Z,48.50
2018-08-28T10:51:10.075Z,47.40
2018-08-28T10:53:37.536Z,47.90
2018-08-28T10:56:05.302Z,48.10
2018-08-28T10:58:32.689Z,47.80
2018-08-28T11:00:59.954Z,47.40
2018-08-28T11:03:27.416Z,47.30
2018-08-28T11:05:54.703Z,47.40
2018-08-28T11:08:21.984Z,48.60
2018-08-28T11:10:49.294Z,49.00
2018-08-28T11:13:16.596Z,48.50
2018-08-28T11:15:43.905Z,48.40
2018-08-28T11:18:11.248Z,46.60
2018-08-28T11:20:38.520Z,46.30
2018-08-28T11:23:05.891Z,46.00
2018-08-28T11:25:33.191Z,45.80
2018-08-28T11:28:00.463Z,45.60
2018-08-28T11:30:27.994Z,45.80
2018-08-28T11:32:55.568Z,46.30
2018-08-28T11:35:23.077Z,46.30
2018-08-28T11:37:50.375Z,45.10
2018-08-28T11:40:17.681Z,45.10
2018-08-28T11:42:45.002Z,45.20
2018-08-28T11:45:12.346Z,44.70
2018-08-28T11:47:39.659Z,44.60
2018-08-28T11:50:07.136Z,44.80
2018-08-28T11:52:34.530Z,44.20
2018-08-28T11:55:01.784Z,45.00
2018-08-28T11:57:29.092Z,45.20
2018-08-28T11:59:56.389Z,45.40
2018-08-28T12:02:23.687Z,45.70
2018-08-28T12:04:51.018Z,45.00
2018-08-28T12:07:18.405Z,44.80
2018-08-28T12:09:45.614Z,44.40
2018-08-28T12:12:13.079Z,44.70
2018-08-28T12:14:40.443Z,45.40
2018-08-28T12:17:07.760Z,45.20
2018-08-28T12:19:35.068Z,45.30
2018-08-28T12:22:02.408Z,44.70
2018-08-28T12:24:29.737Z,44.80
2018-08-28T12:26:57.062Z,45.20
2018-08-28T12:29:24.372Z,45.60
2018-08-28T12:31:51.731Z,45.40
2018-08-28T12:34:19.036Z,45.90
2018-08-28T12:36:46.448Z,45.00
2018-08-28T12:39:13.723Z,44.90
2018-08-28T12:41:41.017Z,44.80
2018-08-28T12:44:08.415Z,44.50
2018-08-28T12:46:35.859Z,44.40
2018-08-28T12:49:03.163Z,44.60
2018-08-28T12:51:30.562Z,44.70
2018-08-28T12:53:57.821Z,44.30
2018-08-28T12:56:25.132Z,44.10
2018-08-28T12:58:52.467Z,44.10
2018-08-28T13:01:19.810Z,44.50
2018-08-28T13:03:47.100Z,44.20
2018-08-28T13:06:15.298Z,44.10
2018-08-28T13:08:42.614Z,43.30
2018-08-28T13:11:09.943Z,43.40
2018-08-28T13:13:37.284Z,43.20
2018-08-28T13:16:04.660Z,42.90
2018-08-28T13:18:31.943Z,43.00
2018-08-28T13:20:59.243Z,42.40
2018-08-28T13:23:26.551Z,42.30
2018-08-28T13:25:53.878Z,42.80
2018-08-28T13:28:21.146Z,42.70
2018-08-28T13:30:48.455Z,42.70
2018-08-28T13:33:15.728Z,43.00
2018-08-28T13:35:43.219Z,42.50
2018-08-28T13:38:10.536Z,41.80
2018-08-28T13:40:38.004Z,41.70
2018-08-28T13:43:05.402Z,42.20
2018-08-28T13:45:32.703Z,41.60
2018-08-28T13:48:00.054Z,41.50
2018-08-28T13:50:27.367Z,42.20
2018-08-28T13:52:54.716Z,41.90
2018-08-28T13:55:21.995Z,41.80
2018-08-28T13:57:49.349Z,41.80
2018-08-28T14:00:16.721Z,41.20
2018-08-28T14:02:44.051Z,41.10
2018-08-28T14:05:11.486Z,40.70
2018-08-28T14:07:38.804Z,41.30
2018-08-28T14:10:06.191Z,42.10
2018-08-28T14:12:33.525Z,41.70
2018-08-28T14:15:00.879Z,41.60
2018-08-28T14:17:28.144Z,41.90
2018-08-28T14:19:55.683Z,42.20
2018-08-28T14:22:23.047Z,41.80
2018-08-28T14:24:50.852Z,42.10
2018-08-28T14:27:18.368Z,42.40
2018-08-28T14:29:45.769Z,42.00
2018-08-28T14:32:13.481Z,42.30
2018-08-28T14:34:40.828Z,41.30
2018-08-28T14:37:08.152Z,40.90
2018-08-28T14:39:35.665Z,41.00
2018-08-28T14:42:02.975Z,41.30
2018-08-28T14:44:30.312Z,41.10
2018-08-28T14:46:57.742Z,41.20
2018-08-28T14:49:25.131Z,41.50
2018-08-28T14:51:52.837Z,40.80
2018-08-28T14:54:20.403Z,40.80
2018-08-28T14:56:47.737Z,41.00
2018-08-28T14:59:14.992Z,40.60
2018-08-28T15:01:42.356Z,39.80
2018-08-28T15:04:09.660Z,39.30
2018-08-28T15:06:36.977Z,39.60
2018-08-28T15:09:06.436Z,39.30
2018-08-28T15:11:33.747Z,39.70
2018-08-28T15:14:01.049Z,39.60
2018-08-28T15:16:28.463Z,40.00
2018-08-28T15:18:55.842Z,39.90
2018-08-28T15:21:23.128Z,40.70
2018-08-28T15:23:50.479Z,40.80
2018-08-28T15:26:17.970Z,40.30
2018-08-28T15:28:45.251Z,40.60
2018-08-28T15:31:12.555Z,40.60
2018-08-28T15:33:39.863Z,41.30
2018-08-28T15:36:07.171Z,40.50
2018-08-28T15:38:34.519Z,40.40
2018-08-28T15:41:02.081Z,40.30
2018-08-28T15:43:29.365Z,41.10
2018-08-28T15:45:56.675Z,41.10
2018-08-28T15:48:24.035Z,41.60
2018-08-28T15:50:51.341Z,41.20
2018-08-28T15:53:18.685Z,40.70
2018-08-28T15:55:46.091Z,40.30
2018-08-28T15:58:13.400Z,40.30
2018-08-28T16:00:40.703Z,40.30
2018-08-28T16:03:08.370Z,40.60
2018-08-28T16:05:35.671Z,40.30
2018-08-28T16:08:03.012Z,40.30
2018-08-28T16:10:30.336Z,40.70
2018-08-28T16:12:57.640Z,40.80
2018-08-28T16:15:25.026Z,40.70
2018-08-28T16:17:52.628Z,41.00
2018-08-28T16:20:19.922Z,41.20
2018-08-28T16:22:50.017Z,41.00
2018-08-28T16:25:17.335Z,41.10
2018-08-28T16:27:44.664Z,42.10
2018-08-28T16:30:12.019Z,41.40
2018-08-28T16:32:39.337Z,41.60
2018-08-28T16:35:06.696Z,41.50
2018-08-28T16:37:33.997Z,41.70
2018-08-28T16:40:01.358Z,42.00
2018-08-28T16:42:28.912Z,42.10
2018-08-28T16:44:56.253Z,42.30
2018-08-28T16:47:23.547Z,42.20
2018-08-28T16:49:51.036Z,42.30
2018-08-28T16:52:18.439Z,42.40
2018-08-28T16:54:45.800Z,42.40
2018-08-28T16:57:13.335Z,42.60
2018-08-28T16:59:40.619Z,42.40
2018-08-28T17:02:07.917Z,42.60
2018-08-28T17:04:35.281Z,42.60
2018-08-28T17:07:02.607Z,42.70
2018-08-28T17:09:29.916Z,42.50
2018-08-28T17:11:57.258Z,42.70
2018-08-28T17:14:24.563Z,42.70
2018-08-28T17:16:51.996Z,43.00
2018-08-28T17:19:19.372Z,43.10
2018-08-28T17:21:46.683Z,43.10
2018-08-28T17:24:13.991Z,43.90
2018-08-28T17:26:41.302Z,43.50
2018-08-28T17:29:08.659Z,43.50
2018-08-28T17:31:36.216Z,43.50
2018-08-28T17:34:03.592Z,43.40
2018-08-28T17:36:30.928Z,43.50
2018-08-28T17:38:58.251Z,43.70
2018-08-28T17:41:25.602Z,44.00
2018-08-28T17:43:52.911Z,44.30
2018-08-28T17:46:20.328Z,44.60
2018-08-28T17:48:47.718Z,45.00
2018-08-28T17:51:15.047Z,44.90
2018-08-28T17:53:42.450Z,45.00
2018-08-28T17:56:09.864Z,45.20
2018-08-28T17:58:37.158Z,45.50
2018-08-28T18:01:04.652Z,45.50
2018-08-28T18:03:31.977Z,46.00
2018-08-28T18:05:59.287Z,45.90
2018-08-28T18:08:26.820Z,46.00
2018-08-28T18:10:54.465Z,46.10
2018-08-28T18:13:21.755Z,46.20
2018-08-28T18:15:49.083Z,46.20
2018-08-28T18:18:16.424Z,46.30
2018-08-28T18:20:43.790Z,46.40
2018-08-28T18:23:11.115Z,46.60
2018-08-28T18:25:38.412Z,46.90
2018-08-28T18:28:05.721Z,46.90
2018-08-28T18:30:33.042Z,47.10
2018-08-28T18:33:00.337Z,47.30
2018-08-28T18:35:27.904Z,47.40
2018-08-28T18:37:55.190Z,47.50
2018-08-28T18:40:22.553Z,47.70
2018-08-28T18:42:49.861Z,47.80
2018-08-28T18:45:17.144Z,48.10
2018-08-28T18:47:44.475Z,48.20
2018-08-28T18:50:11.850Z,48.40
2018-08-28T18:52:39.377Z,48.50
2018-08-28T18:55:06.967Z,48.70
2018-08-28T18:57:34.324Z,49.00
2018-08-28T19:00:01.623Z,49.10
2018-08-28T19:02:28.939Z,49.30
2018-08-28T19:04:56.247Z,49.60
2018-08-28T19:07:23.582Z,49.60
2018-08-28T19:09:51.027Z,49.90
2018-08-28T19:12:18.372Z,50.20
2018-08-28T19:14:45.781Z,50.20
2018-08-28T19:17:13.158Z,50.30
2018-08-28T19:19:40.453Z,50.50
2018-08-28T19:22:08.022Z,50.70
2018-08-28T19:24:35.747Z,51.00
2018-08-28T19:27:03.093Z,51.10
2018-08-28T19:29:30.408Z,51.10
2018-08-28T19:31:57.768Z,51.30
2018-08-28T19:34:25.107Z,51.40
2018-08-28T19:36:53.550Z,51.80
2018-08-28T19:39:20.891Z,52.00
2018-08-28T19:41:48.228Z,52.10
2018-08-28T19:44:15.661Z,52.10
2018-08-28T19:46:42.974Z,52.20
2018-08-28T19:49:10.583Z,52.50
2018-08-28T19:51:37.932Z,52.50
2018-08-28T19:54:05.317Z,52.60
2018-08-28T19:56:32.624Z,52.80
2018-08-28T19:58:59.984Z,52.80
2018-08-28T20:01:27.329Z,52.90
2018-08-28T20:03:54.766Z,53.00
2018-08-28T20:06:22.028Z,53.00
2018-08-28T20:08:49.537Z,53.10
2018-08-28T20:11:16.916Z,53.20
2018-08-28T20:13:44.226Z,53.20
2018-08-28T20:16:11.866Z,53.30
2018-08-28T20:18:39.278Z,53.30
2018-08-28T20:21:06.583Z,53.40
2018-08-28T20:23:33.906Z,53.40
2018-08-28T20:26:01.209Z,53.50
2018-08-28T20:28:28.537Z,53.60
2018-08-28T20:30:55.871Z,53.70
2018-08-28T20:33:23.481Z,53.80
2018-08-28T20:35:50.808Z,53.80
2018-08-28T20:38:18.119Z,54.00
2018-08-28T20:40:45.456Z,54.10
2018-08-28T20:43:12.775Z,54.20
2018-08-28T20:45:40.101Z,54.20
2018-08-28T20:48:07.469Z,54.30
2018-08-28T20:50:35.051Z,54.20
2018-08-28T20:53:02.367Z,54.40
2018-08-28T20:55:29.904Z,54.50
2018-08-28T20:57:57.262Z,55.20
2018-08-28T21:00:24.647Z,54.40
2018-08-28T21:02:51.983Z,54.70
2018-08-28T21:05:25.103Z,54.90
2018-08-28T21:07:52.573Z,54.90
2018-08-28T21:10:20.172Z,55.10
2018-08-28T21:12:47.518Z,55.00
2018-08-28T21:15:15.113Z,55.20
2018-08-28T21:17:42.595Z,55.10
2018-08-28T21:20:09.920Z,55.20
2018-08-28T21:22:37.247Z,55.30
2018-08-28T21:25:04.647Z,55.50
2018-08-28T21:27:31.946Z,55.50
2018-08-28T21:29:59.269Z,55.80
2018-08-28T21:32:26.627Z,55.70
2018-08-28T21:34:54.491Z,56.00
2018-08-28T21:37:21.859Z,56.00
2018-08-28T21:39:49.156Z,56.10
2018-08-28T21:42:16.621Z,56.00
2018-08-28T21:44:43.908Z,56.30
2018-08-28T21:47:11.228Z,56.40
2018-08-28T21:49:38.756Z,56.50
2018-08-28T21:52:06.129Z,56.60
2018-08-28T21:54:33.444Z,56.60
2018-08-28T21:57:01.023Z,57.20
2018-08-28T21:59:28.346Z,56.70
2018-08-28T22:01:55.724Z,56.60
2018-08-28T22:04:23.044Z,56.60
2018-08-28T22:06:56.312Z,56.70
2018-08-28T22:09:23.595Z,56.70
2018-08-28T22:11:50.923Z,56.80
2018-08-28T22:14:18.235Z,56.90
2018-08-28T22:16:45.591Z,57.20
2018-08-28T22:19:12.903Z,57.10
2018-08-28T22:21:40.245Z,57.30
2018-08-28T22:24:07.555Z,57.30
2018-08-28T22:26:34.863Z,57.50
2018-08-28T22:29:02.194Z,57.40
2018-08-28T22:31:29.515Z,57.50
2018-08-28T22:33:57.170Z,58.10
2018-08-28T22:36:24.520Z,57.60
2018-08-28T22:38:51.828Z,57.80
2018-08-28T22:41:19.540Z,58.10
2018-08-28T22:43:46.899Z,58.00
2018-08-28T22:46:14.220Z,57.90
2018-08-28T22:48:41.567Z,58.00
2018-08-28T22:51:08.980Z,58.10
2018-08-28T22:53:36.397Z,58.10
2018-08-28T22:56:04.387Z,58.20
2018-08-28T22:58:31.705Z,58.10
2018-08-28T23:00:59.048Z,58.20
2018-08-28T23:03:26.376Z,58.20
2018-08-28T23:05:53.663Z,58.40
2018-08-28T23:08:21.008Z,58.50
2018-08-28T23:10:48.720Z,58.60
2018-08-28T23:13:16.019Z,58.50
2018-08-28T23:15:43.333Z,58.70
2018-08-28T23:18:10.761Z,58.80
2018-08-28T23:20:38.095Z,58.70
2018-08-28T23:23:05.675Z,58.80
2018-08-28T23:25:33.107Z,58.80
2018-08-28T23:28:00.423Z,58.80
2018-08-28T23:30:27.731Z,58.90
2018-08-28T23:32:55.099Z,58.80
2018-08-28T23:35:22.432Z,58.90
2018-08-28T23:37:49.761Z,59.10
2018-08-28T23:40:17.136Z,59.20
2018-08-28T23:42:44.431Z,59.40
2018-08-28T23:45:11.707Z,59.30
2018-08-28T23:47:39.005Z,59.30
2018-08-28T23:50:06.413Z,59.50
2018-08-28T23:52:33.706Z,59.50
2018-08-28T23:55:01.024Z,60.10
2018-08-28T23:57:28.315Z,59.50
2018-08-28T23:59:55.707Z,59.30
